Home   Weather   Spain   Salamanca   Past weeks
Flag for Spain

Past Weather in Salamanca, Spain — Yesterday and Last 2 Weeks

Currently: 46 °F. Clear. (Weather station: Salamanca / Matacan, Spain). See more current weather

Past Weather in Salamanca — Graph

°F

Salamanca Temperature Yesterday

Maximum temperature yesterday: 59 °F (at 3:30 pm)
Minimum temperature yesterday: 34 °F (at 5:00 am)
Average temperature yesterday: 45 °F

High & Low Weather Summary for the Past Weeks

 TemperatureHumidityPressure
High63 °F (Feb 19, 2:00 pm)100% (Feb 17, 6:00 am)30.48 "Hg (Feb 17, 6:00 am)
Low28 °F (Feb 23, 4:00 am)21% (Feb 23, 4:00 pm)29.62 "Hg (Feb 21, 3:00 am)
Average46 °F73%30.15 "Hg
* Reported Feb 16 9:00 pm — Mar 3 9:00 pm, Salamanca. Weather by CustomWeather, © 2021

Note: Actual official high and low records may vary slightly from our data, if they occured in-between our weather recording intervals... More about our weather records

Salamanca Weather History for the Previous 24 Hours

Scroll right to see more
 ConditionsComfort  
Time TempWeatherWind HumidityBarometerVisibility
9:00 pm
Wed, Mar 3
52 °FClear.2 mph67%30.27 "Hg10 mi
8:30 pm48 °FClear.No wind76%30.27 "Hg10 mi
8:00 pm50 °FPassing clouds.6 mph67%30.27 "HgN/A
7:30 pm54 °FPassing clouds.7 mph63%30.27 "HgN/A
7:00 pm55 °FPassing clouds.6 mph59%30.27 "HgN/A
6:30 pm59 °FPassing clouds.7 mph51%30.27 "HgN/A
6:00 pm61 °FPassing clouds.7 mph45%30.27 "HgN/A
5:30 pm61 °FPassing clouds.2 mph42%30.27 "HgN/A
5:00 pm61 °FPassing clouds.6 mph42%30.27 "HgN/A
4:30 pm61 °FPassing clouds.5 mph42%30.27 "HgN/A
4:00 pm61 °FPassing clouds.6 mph48%30.30 "HgN/A
3:30 pm61 °FPassing clouds.2 mph45%30.30 "HgN/A
3:00 pm61 °FPassing clouds.7 mph45%30.30 "HgN/A
2:00 pm61 °FPassing clouds.7 mph48%30.33 "HgN/A
1:30 pm59 °FPassing clouds.8 mph51%30.33 "HgN/A
12:30 pm55 °FPassing clouds.5 mph67%30.36 "HgN/A
12:00 pm54 °FPassing clouds.3 mph67%30.36 "HgN/A
11:30 am52 °FSunny.No wind72%30.39 "Hg10 mi
11:00 am48 °FClear.No wind82%30.39 "Hg6 mi
10:30 am45 °FClear.2 mph87%30.39 "Hg5 mi
10:00 am41 °FClear.3 mph93%30.39 "Hg5 mi
9:30 am37 °FClear.3 mph100%30.39 "Hg5 mi
9:00 am36 °FFog.No wind100%30.39 "Hg2 mi
8:30 am32 °FLight fog.No wind100%30.39 "Hg1 mi
8:00 am34 °FLight fog.No wind100%30.36 "Hg1 mi
7:30 am34 °FLight fog.No wind100%30.36 "Hg1 mi
7:00 am34 °FPassing clouds.No wind100%30.36 "Hg1 mi
6:30 am34 °FFog.No wind100%30.36 "Hg1 mi
6:00 am36 °FClear.1 mph93%30.36 "Hg10 mi
5:30 am36 °FFog.No wind100%30.36 "Hg2 mi
5:00 am36 °FFog.No wind100%30.36 "Hg1 mi
4:30 am36 °FFog.1 mph93%30.36 "Hg1 mi
4:00 am36 °FFog.5 mph100%30.36 "Hg2 mi
3:30 am37 °FFog.No wind93%30.36 "Hg1 mi
3:00 am37 °FClear.3 mph100%30.36 "Hg10 mi
2:30 am37 °FChilly.3 mph100%30.36 "Hg4 mi
2:00 am39 °FClear.3 mph100%30.36 "Hg4 mi
1:30 am37 °FClear.1 mph100%30.36 "Hg10 mi
1:00 am37 °FFog.5 mph100%30.36 "Hg2 mi
12:30 am39 °FFog.2 mph93%30.36 "Hg1 mi
12:00 am41 °FQuite cool.No wind100%30.36 "Hg5 mi
11:30 pm
Tue, Mar 2
41 °FQuite cool.No wind93%30.36 "Hg6 mi
11:00 pm41 °FQuite cool.No wind100%30.36 "Hg4 mi
10:30 pm43 °FClear.3 mph100%30.33 "Hg10 mi
10:00 pm45 °FClear.3 mph93%30.33 "Hg6 mi
Weather by CustomWeather, © 2021

See weather overview